Time;durP1;ratioP1;P1;durP2;ratioP2;P2;SDS_P1;SDS_P2;PMS_P1;PMS_P2;Temp;Humidity;BMP_temperature;BMP_pressure;BME280_temperature;BME280_humidity;BME280_pressure;Samples;Min_cycle;Max_cycle;Signal;HPM_P1;HPM_P2
2021/11/29 00:02:25;;;;;;;8.77;7.80;;;;;;;13.62;73.50;99513.69;4828073;29;101537;-89
2021/11/29 00:04:52;;;;;;;11.57;9.25;;;;;;;13.63;73.56;99501.66;4828191;29;101572;-89
2021/11/29 00:07:20;;;;;;;11.00;8.82;;;;;;;13.62;73.56;99497.28;4829006;29;102075;-89
2021/11/29 00:09:47;;;;;;;11.38;8.15;;;;;;;13.62;73.76;99497.28;4814063;29;102688;-89
2021/11/29 00:12:17;;;;;;;11.00;8.45;;;;;;;13.62;73.87;99502.75;4831318;29;102097;-89
2021/11/29 00:14:43;;;;;;;9.35;8.23;;;;;;;13.62;73.70;99518.34;4828890;29;102136;-89
2021/11/29 00:17:10;;;;;;;11.10;8.63;;;;;;;13.62;73.65;99518.34;4832567;29;102055;-89
2021/11/29 00:19:36;;;;;;;10.93;8.68;;;;;;;13.61;73.72;99523.03;4831013;29;102628;-89
2021/11/29 00:22:03;;;;;;;9.65;7.90;;;;;;;13.61;73.72;99533.97;4831839;29;101499;-89
2021/11/29 00:24:29;;;;;;;9.30;8.05;;;;;;;13.62;73.63;99541.03;4830084;29;101948;-89
2021/11/29 00:26:59;;;;;;;8.85;7.43;;;;;;;13.62;73.84;99537.50;4816055;29;102123;-89
2021/11/29 00:29:27;;;;;;;9.85;7.82;;;;;;;13.62;73.81;99540.22;4831012;29;102414;-89
2021/11/29 00:31:53;;;;;;;10.55;8.05;;;;;;;13.61;73.79;99528.50;4830772;29;102109;-89
2021/11/29 00:34:21;;;;;;;9.63;7.70;;;;;;;13.62;73.57;99524.63;4814354;29;101599;-88
2021/11/29 00:36:49;;;;;;;9.63;7.60;;;;;;;13.62;73.68;99502.75;4832265;29;102060;-88
2021/11/29 00:39:17;;;;;;;9.27;7.90;;;;;;;13.62;73.57;99489.09;4831089;29;102726;-87
2021/11/29 00:41:43;;;;;;;9.85;8.20;;;;;;;13.61;73.64;99484.75;4831285;29;101563;-87
2021/11/29 00:44:10;;;;;;;24.70;8.18;;;;;;;13.61;73.81;99475.75;4830121;29;101997;-88
2021/11/29 00:46:38;;;;;;;29.85;12.23;;;;;;;13.61;73.56;99471.09;4832383;29;102101;-88
2021/11/29 00:49:05;;;;;;;9.52;7.25;;;;;;;13.60;73.72;99485.88;4830631;29;102708;-87
2021/11/29 00:51:32;;;;;;;11.75;7.78;;;;;;;13.61;73.70;99483.94;4831463;29;102185;-88
2021/11/29 00:53:59;;;;;;;11.48;7.25;;;;;;;13.61;73.72;99482.00;4829454;29;101586;-88
2021/11/29 00:56:25;;;;;;;12.18;7.75;;;;;;;13.61;73.88;99468.34;4831702;29;102058;-87
2021/11/29 00:58:51;;;;;;;11.93;8.25;;;;;;;13.61;73.75;99471.09;4830372;29;102576;-87
2021/11/29 01:01:18;;;;;;;9.88;7.70;;;;;;;13.61;73.66;99464.81;4814764;29;102019;-87
2021/11/29 01:03:46;;;;;;;47.70;11.95;;;;;;;13.62;73.72;99452.75;4812942;29;102148;-87
2021/11/29 01:06:12;;;;;;;50.53;10.02;;;;;;;13.62;73.75;99463.69;4831970;29;102051;-87
2021/11/29 01:08:39;;;;;;;8.32;6.90;;;;;;;13.60;73.66;99453.09;4830468;29;102750;-87
2021/11/29 01:11:07;;;;;;;9.93;7.13;;;;;;;13.60;73.66;99453.09;4829513;29;101553;-87
2021/11/29 01:13:34;;;;;;;10.52;7.57;;;;;;;13.61;73.47;99457.41;4828496;29;101790;-87
2021/11/29 01:16:01;;;;;;;9.85;7.57;;;;;;;13.60;73.59;99453.09;4830521;29;102152;-87
2021/11/29 01:18:27;;;;;;;9.68;6.70;;;;;;;13.61;73.69;99451.16;4830508;29;102764;-87
2021/11/29 01:20:55;;;;;;;10.45;6.93;;;;;;;13.60;73.64;99447.63;4830958;29;102000;-87
2021/11/29 01:23:22;;;;;;;13.82;7.65;;;;;;;13.60;73.61;99444.88;4830667;29;101978;-87
2021/11/29 01:25:51;;;;;;;9.75;6.75;;;;;;;13.60;73.71;99422.22;4831542;29;101647;-87
2021/11/29 01:28:18;;;;;;;9.60;6.97;;;;;;;13.61;73.82;99430.06;4830094;29;102825;-87
2021/11/29 01:30:44;;;;;;;8.10;6.55;;;;;;;13.60;73.60;99412.06;4830873;29;101549;-87
2021/11/29 01:33:19;;;;;;;11.55;6.85;;;;;;;13.61;73.74;99404.69;4830403;29;101524;-87
2021/11/29 01:35:45;;;;;;;10.48;6.85;;;;;;;13.60;73.55;99405.81;4831497;29;102079;-87
2021/11/29 01:38:13;;;;;;;8.70;6.80;;;;;;;13.61;73.71;99408.22;4813046;29;105214;-87
2021/11/29 01:40:41;;;;;;;9.50;6.88;;;;;;;13.59;73.61;99383.13;4830329;29;101987;-89
2021/11/29 01:43:10;;;;;;;9.27;6.80;;;;;;;13.61;73.72;99385.53;4829541;29;101921;-90
2021/11/29 01:45:40;;;;;;;10.15;6.95;;;;;;;13.60;73.71;99376.53;4830917;29;102122;-89
2021/11/29 01:48:07;;;;;;;8.97;7.00;;;;;;;13.61;73.51;99367.22;4829829;29;102738;-90
2021/11/29 01:50:36;;;;;;;8.93;6.60;;;;;;;13.60;73.70;99360.13;4830742;29;101795;-90
2021/11/29 01:53:02;;;;;;;8.15;6.22;;;;;;;13.60;73.54;99345.66;4830154;29;101779;-90
2021/11/29 01:55:31;;;;;;;7.65;5.97;;;;;;;13.60;73.81;99349.19;4831317;29;102079;-90
2021/11/29 01:57:57;;;;;;;10.50;6.60;;;;;;;13.60;73.61;99340.22;4832030;29;102767;-91
2021/11/29 02:00:32;;;;;;;7.22;5.32;;;;;;;13.59;73.54;99333.91;4848501;29;102178;-91
2021/11/29 02:02:58;;;;;;;9.52;6.63;;;;;;;13.59;73.65;99333.09;4858759;29;102026;-92
2021/11/29 02:05:25;;;;;;;8.63;5.80;;;;;;;13.59;73.47;99336.63;4849399;29;102076;-91
2021/11/29 02:07:52;;;;;;;8.00;6.03;;;;;;;13.59;73.74;99333.91;4848104;29;102853;-90
2021/11/29 02:10:21;;;;;;;8.13;6.10;;;;;;;13.59;73.75;99338.56;4848852;29;101995;-91
2021/11/29 02:12:49;;;;;;;6.95;5.55;;;;;;;13.59;73.85;99344.03;4846607;29;102025;-91
2021/11/29 02:15:17;;;;;;;9.10;5.85;;;;;;;13.59;73.68;99344.84;4847205;29;102072;-90
2021/11/29 02:17:45;;;;;;;7.32;5.35;;;;;;;13.59;73.72;99355.78;4811569;29;102827;-91
2021/11/29 02:20:13;;;;;;;7.88;5.78;;;;;;;13.59;73.63;99344.84;4806087;29;101942;-91
2021/11/29 02:22:44;;;;;;;9.88;5.82;;;;;;;13.59;73.83;99355.78;4829665;29;101697;-91
2021/11/29 02:25:11;;;;;;;9.57;5.20;;;;;;;13.59;73.71;99350.31;4829266;29;101669;-91
2021/11/29 02:27:40;;;;;;;7.50;5.43;;;;;;;13.60;73.77;99357.41;4829703;29;102381;-91
2021/11/29 02:30:07;;;;;;;8.18;5.75;;;;;;;13.59;73.84;99350.31;4829925;29;101902;-91
2021/11/29 02:32:34;;;;;;;7.72;5.25;;;;;;;13.60;73.82;99338.28;4832851;29;101687;-91
2021/11/29 02:35:02;;;;;;;10.57;5.75;;;;;;;13.59;73.82;99316.72;4849416;29;102076;-91
2021/11/29 02:37:29;;;;;;;8.60;5.57;;;;;;;13.59;73.71;99322.97;4844984;29;102736;-91
2021/11/29 02:39:57;;;;;;;6.35;4.88;;;;;;;13.59;73.91;99322.97;4848454;29;101795;-91
2021/11/29 02:42:24;;;;;;;6.70;4.87;;;;;;;13.59;73.86;99311.25;4847351;29;101785;-91
2021/11/29 02:44:51;;;;;;;9.00;4.78;;;;;;;13.59;73.72;99309.31;4849067;29;102033;-91
2021/11/29 02:47:18;;;;;;;8.50;4.90;;;;;;;13.59;73.73;99312.03;4847716;29;102577;-91
2021/11/29 02:49:45;;;;;;;8.45;5.18;;;;;;;13.60;73.67;99301.94;4844717;29;101809;-91
2021/11/29 02:52:14;;;;;;;6.82;4.72;;;;;;;13.60;73.80;99296.47;4829368;29;102537;-90
2021/11/29 02:54:44;;;;;;;6.15;4.53;;;;;;;13.59;73.82;99303.84;4829387;29;101959;-91
2021/11/29 02:57:14;;;;;;;7.23;4.73;;;;;;;13.59;73.76;99290.19;4837104;29;102745;-90
2021/11/29 02:59:41;;;;;;;6.68;4.60;;;;;;;13.58;73.63;99272.19;4848789;29;102146;-90
2021/11/29 03:02:10;;;;;;;7.03;5.05;;;;;;;13.60;73.68;99274.59;4865966;29;102137;-91
2021/11/29 03:04:37;;;;;;;7.65;4.80;;;;;;;13.60;73.98;99263.66;4867040;29;103289;-91
2021/11/29 03:07:04;;;;;;;8.20;4.68;;;;;;;13.58;73.60;99261.25;4862881;29;102337;-91
2021/11/29 03:09:31;;;;;;;8.15;4.47;;;;;;;13.59;73.81;99254.63;4849743;29;101816;-91
2021/11/29 03:11:58;;;;;;;6.63;4.45;;;;;;;13.59;73.40;99254.63;4866493;29;101790;-91
2021/11/29 03:14:26;;;;;;;7.00;4.50;;;;;;;13.59;74.02;99251.09;4866603;29;101765;-90
2021/11/29 03:16:55;;;;;;;6.85;4.43;;;;;;;13.59;73.87;99253.84;4847081;29;102808;-91
2021/11/29 03:19:29;;;;;;;9.20;4.80;;;;;;;13.59;73.64;99240.97;4859454;29;101980;-91
2021/11/29 03:21:55;;;;;;;8.20;4.85;;;;;;;13.59;73.65;99235.50;4831008;29;101997;-92
2021/11/29 03:24:21;;;;;;;7.68;4.15;;;;;;;13.60;73.79;99242.59;4863382;29;101845;-91
2021/11/29 03:26:47;;;;;;;6.82;4.18;;;;;;;13.60;73.86;99236.34;4851684;29;102810;-91
2021/11/29 03:29:16;;;;;;;6.45;4.40;;;;;;;13.59;73.72;99230.03;4849934;29;101930;-91
2021/11/29 03:31:44;;;;;;;6.73;4.13;;;;;;;13.59;73.74;99230.03;4839198;29;101885;-91
2021/11/29 03:34:14;;;;;;;6.85;4.35;;;;;;;13.60;73.70;99226.19;4831247;29;102074;-90
2021/11/29 03:36:43;;;;;;;6.10;4.05;;;;;;;13.59;73.65;99216.38;4851097;29;102794;-90
2021/11/29 03:39:12;;;;;;;7.60;4.45;;;;;;;13.60;73.71;99214.47;4866052;29;101907;-90
2021/11/29 03:41:39;;;;;;;6.88;4.68;;;;;;;13.60;74.10;99201.59;4834848;29;102094;-91
2021/11/29 03:44:06;;;;;;;9.05;4.55;;;;;;;13.59;73.27;99197.25;4828310;29;102088;-91
2021/11/29 03:46:33;;;;;;;7.25;4.68;;;;;;;13.59;73.70;99210.91;4828567;29;102126;-91
2021/11/29 03:49:01;;;;;;;6.07;4.18;;;;;;;13.60;73.73;99209.78;4846089;29;101783;-91
2021/11/29 03:51:28;;;;;;;6.93;4.25;;;;;;;13.60;73.75;99209.78;4845906;29;101821;-91
2021/11/29 03:53:54;;;;;;;9.07;4.43;;;;;;;13.60;74.27;99204.31;4832691;29;102078;-91
2021/11/29 03:56:21;;;;;;;8.07;4.18;;;;;;;13.59;73.79;99219.09;4828838;29;102748;-91
2021/11/29 03:58:48;;;;;;;7.93;3.97;;;;;;;13.60;73.73;99215.25;4847284;29;102016;-91
2021/11/29 04:01:15;;;;;;;7.60;4.30;;;;;;;13.60;73.78;99215.25;4846949;29;102114;-90
2021/11/29 04:03:41;;;;;;;8.00;3.92;;;;;;;13.61;73.63;99211.41;4847759;29;102019;-90
2021/11/29 04:06:09;;;;;;;4.40;3.45;;;;;;;13.60;73.57;99212.53;4829665;29;102699;-91
2021/11/29 04:08:36;;;;;;;8.23;4.40;;;;;;;13.60;73.96;99201.59;4846758;29;101827;-91
2021/11/29 04:11:04;;;;;;;5.20;3.70;;;;;;;13.60;73.84;99201.59;4846344;29;101841;-90
2021/11/29 04:13:30;;;;;;;8.23;4.20;;;;;;;13.60;73.60;99201.59;4847670;29;102083;-91
2021/11/29 04:15:58;;;;;;;5.60;3.70;;;;;;;13.60;73.69;99190.66;4846406;29;102745;-89
2021/11/29 04:18:26;;;;;;;4.60;3.35;;;;;;;13.59;73.73;99186.31;4828995;29;102052;-93
2021/11/29 04:20:52;;;;;;;6.60;3.75;;;;;;;13.61;73.64;99183.25;4853001;29;102106;-93
2021/11/29 04:23:20;;;;;;;5.85;3.97;;;;;;;13.61;73.68;99172.31;4861892;29;102034;-93
2021/11/29 04:25:58;;;;;;;7.30;4.00;;;;;;;13.60;73.83;99168.78;4861473;29;102801;-92
2021/11/29 04:28:25;;;;;;;9.25;4.05;;;;;;;13.61;73.90;99173.13;4825642;29;102040;-93
2021/11/29 04:30:53;;;;;;;6.45;3.90;;;;;;;13.60;73.90;99177.00;4860877;29;102130;-93
2021/11/29 04:33:20;;;;;;;6.53;4.10;;;;;;;13.61;73.63;99177.78;4845675;29;102228;-92
2021/11/29 04:35:47;;;;;;;8.25;4.93;;;;;;;13.60;73.69;99166.06;4851046;29;102772;-93
2021/11/29 04:38:14;;;;;;;5.97;3.95;;;;;;;13.60;73.47;99151.59;4827401;29;102060;-92
2021/11/29 04:40:42;;;;;;;6.13;3.83;;;;;;;13.61;73.67;99155.94;4856733;29;102432;-92
2021/11/29 04:43:09;;;;;;;7.65;4.22;;;;;;;13.60;73.76;99157.06;4833375;29;102378;-92
2021/11/29 04:45:36;;;;;;;7.35;3.70;;;;;;;13.61;73.72;99156.72;4831645;29;102851;-93
2021/11/29 04:48:03;;;;;;;8.85;3.90;;;;;;;13.60;73.84;99149.66;4846438;29;102198;-92
2021/11/29 04:50:30;;;;;;;8.05;3.92;;;;;;;13.60;74.17;99144.19;4827904;29;102064;-93
2021/11/29 04:52:56;;;;;;;7.43;3.70;;;;;;;13.60;73.73;99133.25;4843436;29;102071;-92
2021/11/29 04:55:23;;;;;;;7.93;3.90;;;;;;;13.61;73.87;99128.59;4838019;29;102722;-93
2021/11/29 04:57:52;;;;;;;5.50;3.80;;;;;;;13.61;73.76;99134.84;4859068;29;102020;-92
2021/11/29 05:00:19;;;;;;;6.43;4.22;;;;;;;13.60;73.73;99114.13;4846594;29;102124;-92
2021/11/29 05:02:47;;;;;;;7.38;3.78;;;;;;;13.60;73.77;99105.94;4837874;29;102161;-93
2021/11/29 05:05:13;;;;;;;6.28;4.03;;;;;;;13.61;73.75;99101.25;4852779;29;102887;-93
2021/11/29 05:07:41;;;;;;;6.43;3.95;;;;;;;13.61;73.74;99096.59;4847446;29;101845;-93
2021/11/29 05:10:09;;;;;;;5.65;3.90;;;;;;;13.61;73.54;99112.19;4857161;29;101813;-93
2021/11/29 05:12:36;;;;;;;7.07;3.92;;;;;;;13.61;73.79;99110.25;4864352;29;102028;-93
2021/11/29 05:15:05;;;;;;;9.23;4.00;;;;;;;13.60;73.89;99122.31;4863491;29;101822;-93
2021/11/29 05:17:32;;;;;;;9.20;4.03;;;;;;;13.61;73.63;99118.44;4854771;29;101987;-93
2021/11/29 05:19:59;;;;;;;6.03;3.90;;;;;;;13.62;73.83;99105.59;4839010;29;101912;-91
2021/11/29 05:22:25;;;;;;;6.90;4.00;;;;;;;13.62;73.74;99111.84;4831557;29;102070;-87
2021/11/29 05:24:52;;;;;;;8.07;4.32;;;;;;;13.61;73.94;99102.06;4830345;29;102740;-91
2021/11/29 05:27:18;;;;;;;6.45;3.90;;;;;;;13.61;73.70;99093.84;4830888;29;101552;-91
2021/11/29 05:29:45;;;;;;;8.98;4.05;;;;;;;13.62;73.86;99089.97;4830211;29;101787;-91
2021/11/29 05:32:13;;;;;;;7.80;3.97;;;;;;;13.61;73.72;99091.13;4815159;29;102051;-90
2021/11/29 05:34:40;;;;;;;7.15;3.90;;;;;;;13.62;73.84;99080.97;4830056;29;103062;-91
2021/11/29 05:37:07;;;;;;;7.05;3.78;;;;;;;13.61;73.84;99082.91;4830931;29;101929;-91
2021/11/29 05:39:33;;;;;;;7.70;3.88;;;;;;;13.62;73.71;99073.56;4813805;29;102302;-91
2021/11/29 05:41:59;;;;;;;8.38;4.68;;;;;;;13.62;73.82;99075.50;4829823;29;102016;-91
2021/11/29 05:44:26;;;;;;;9.32;4.50;;;;;;;13.62;73.87;99068.09;4830127;29;102334;-90
2021/11/29 05:46:54;;;;;;;7.50;4.07;;;;;;;13.62;73.83;99087.25;4830785;29;101665;-93
2021/11/29 05:49:22;;;;;;;6.47;4.00;;;;;;;13.63;73.79;99079.84;4830332;29;101934;-92
2021/11/29 05:52:00;;;;;;;9.02;4.00;;;;;;;13.63;73.86;99086.13;4829997;29;101836;-92
2021/11/29 05:54:27;;;;;;;9.80;4.43;;;;;;;13.63;73.77;99077.94;4831734;29;102739;-93
2021/11/29 05:56:53;;;;;;;9.75;4.10;;;;;;;13.63;74.29;99067.00;4815253;29;101900;-91
2021/11/29 05:59:21;;;;;;;9.40;4.18;;;;;;;13.63;74.21;99067.00;4831315;29;101957;-93
2021/11/29 06:01:48;;;;;;;8.88;4.05;;;;;;;13.64;73.82;99063.13;4816437;29;102245;-92
2021/11/29 06:04:18;;;;;;;7.55;4.63;;;;;;;13.64;73.88;99046.72;4830395;29;102796;-92
2021/11/29 06:06:46;;;;;;;9.82;4.63;;;;;;;13.64;73.89;99035.78;4813249;29;101819;-91
2021/11/29 06:09:13;;;;;;;8.70;4.20;;;;;;;13.64;73.86;99044.00;4830533;29;101706;-92
2021/11/29 06:11:40;;;;;;;9.35;4.25;;;;;;;13.65;73.76;99031.91;4831029;29;102102;-89
2021/11/29 06:14:07;;;;;;;7.13;4.00;;;;;;;13.64;73.78;99030.31;4841976;29;102703;-94
2021/11/29 06:16:35;;;;;;;8.65;4.32;;;;;;;13.65;73.97;99020.19;4856274;29;102123;-92
2021/11/29 06:19:03;;;;;;;7.93;4.55;;;;;;;13.64;74.06;99022.13;4852103;29;101928;-93
2021/11/29 06:21:29;;;;;;;6.63;4.05;;;;;;;13.65;73.97;99025.66;4847785;29;102175;-93
2021/11/29 06:23:57;;;;;;;10.93;4.47;;;;;;;13.65;74.07;99015.50;4845203;29;102867;-92
2021/11/29 06:26:24;;;;;;;10.38;4.15;;;;;;;13.66;73.90;99002.66;4845121;29;102132;-93
2021/11/29 06:28:51;;;;;;;10.80;5.28;;;;;;;13.65;73.83;98988.19;4847675;29;101813;-93
2021/11/29 06:31:18;;;;;;;8.70;4.30;;;;;;;13.67;73.72;98991.41;4846618;29;102203;-94
2021/11/29 06:33:44;;;;;;;10.02;4.30;;;;;;;13.66;73.86;98995.25;4840405;29;102781;-93
2021/11/29 06:36:12;;;;;;;9.30;4.05;;;;;;;13.67;73.72;98985.94;4846302;29;102227;-93
2021/11/29 06:38:39;;;;;;;11.10;4.57;;;;;;;13.67;73.96;98988.66;4848509;29;102312;-93
2021/11/29 06:41:06;;;;;;;10.93;4.72;;;;;;;13.67;73.79;98985.94;4824141;29;102280;-93
2021/11/29 06:43:34;;;;;;;9.07;5.05;;;;;;;13.67;73.84;98980.47;4827469;29;102775;-92
2021/11/29 06:46:00;;;;;;;9.98;4.70;;;;;;;13.68;73.98;98970.31;4811969;29;102106;-93
2021/11/29 06:48:27;;;;;;;11.60;4.93;;;;;;;13.69;73.86;98969.19;4815515;29;101936;-93
2021/11/29 06:50:54;;;;;;;8.23;4.10;;;;;;;13.67;73.92;98969.53;4804626;29;102169;-92
2021/11/29 06:53:21;;;;;;;9.15;4.68;;;;;;;13.68;73.82;98976.59;4816719;29;102757;-92
2021/11/29 06:55:48;;;;;;;8.85;4.28;;;;;;;13.68;73.92;98973.84;4811851;29;102154;-87
2021/11/29 06:58:17;;;;;;;9.80;4.07;;;;;;;13.69;74.05;98956.31;4828934;29;101687;-87
2021/11/29 07:00:44;;;;;;;9.75;3.90;;;;;;;13.70;73.66;98954.38;4830048;29;102052;-87
2021/11/29 07:03:11;;;;;;;9.52;4.60;;;;;;;13.70;73.87;98941.53;4811878;29;102889;-87
2021/11/29 07:05:38;;;;;;;9.00;4.60;;;;;;;13.70;73.84;98925.13;4813051;29;101705;-87
2021/11/29 07:08:05;;;;;;;11.60;4.72;;;;;;;13.70;73.98;98930.59;4828652;29;101933;-87
2021/11/29 07:10:33;;;;;;;10.10;4.63;;;;;;;13.70;74.04;98919.66;4830200;29;102076;-87
2021/11/29 07:13:00;;;;;;;13.95;4.65;;;;;;;13.72;73.97;98921.25;4828375;29;102427;-87
2021/11/29 07:15:30;;;;;;;10.57;4.97;;;;;;;13.72;73.93;98921.25;4829624;29;107190;-87
2021/11/29 07:17:57;;;;;;;13.00;4.97;;;;;;;13.73;73.87;98907.22;4827263;29;102114;-87
2021/11/29 07:20:23;;;;;;;8.52;4.07;;;;;;;13.72;73.92;98904.84;4830081;29;102009;-87
2021/11/29 07:22:50;;;;;;;10.88;4.40;;;;;;;13.72;73.88;98902.91;4828637;29;102877;-87
2021/11/29 07:25:18;;;;;;;11.25;4.57;;;;;;;13.72;73.83;98896.63;4829758;29;101531;-87
2021/11/29 07:27:44;;;;;;;10.88;5.00;;;;;;;13.73;73.68;98890.03;4812047;29;101612;-87
2021/11/29 07:30:14;;;;;;;10.95;5.05;;;;;;;13.73;74.11;98895.50;4812979;29;102148;-88
2021/11/29 07:32:44;;;;;;;11.40;4.45;;;;;;;13.73;74.17;98887.28;4828329;29;102757;-88
2021/11/29 07:35:12;;;;;;;;;;;;;;;13.73;73.93;98890.81;4829052;29;101792;-87
2021/11/29 07:37:41;;;;;;;12.50;5.18;;;;;;;13.73;73.92;98879.09;4828171;29;101835;-87
2021/11/29 07:40:09;;;;;;;11.77;4.70;;;;;;;13.73;73.97;98885.34;4813437;29;102023;-87
2021/11/29 07:42:36;;;;;;;14.07;5.13;;;;;;;13.73;73.91;98879.09;4827486;29;102627;-88
2021/11/29 07:45:04;;;;;;;10.48;4.35;;;;;;;13.74;73.80;98875.22;4812436;29;101727;-87
2021/11/29 07:47:31;;;;;;;;;;;;;;;13.73;74.15;98885.34;4812297;29;101614;-88
2021/11/29 07:50:00;;;;;;;10.75;4.82;;;;;;;13.74;73.89;98888.88;4829470;29;102094;-87
2021/11/29 07:52:26;;;;;;;12.57;5.80;;;;;;;13.74;74.03;98886.97;4828083;29;102747;-88
2021/11/29 07:54:53;;;;;;;14.00;5.28;;;;;;;13.74;73.78;98881.50;4829049;29;101953;-88
2021/11/29 07:57:19;;;;;;;10.70;4.72;;;;;;;13.74;73.90;98880.69;4827879;29;102158;-87
2021/11/29 07:59:47;;;;;;;11.30;5.00;;;;;;;13.74;73.94;98875.22;4829560;29;103710;-88
2021/11/29 08:02:14;;;;;;;12.80;4.78;;;;;;;13.74;74.01;98870.56;4828090;29;102742;-88
2021/11/29 08:04:41;;;;;;;12.00;5.35;;;;;;;13.74;74.10;98864.28;4811696;29;101760;-88
2021/11/29 08:07:09;;;;;;;12.60;5.47;;;;;;;13.75;74.13;98866.69;4821028;29;101708;-88
2021/11/29 08:09:35;;;;;;;13.85;5.40;;;;;;;13.74;73.97;98856.06;4829321;29;102057;-88
2021/11/29 08:12:02;;;;;;;15.63;5.20;;;;;;;13.75;74.04;98863.97;4828035;29;102817;-88
2021/11/29 08:14:29;;;;;;;11.43;5.47;;;;;;;13.74;73.94;98859.63;4811759;29;102157;-88
2021/11/29 08:16:56;;;;;;;14.65;5.70;;;;;;;13.75;73.94;98860.44;4827830;29;101632;-88
2021/11/29 08:19:23;;;;;;;11.60;4.85;;;;;;;13.74;74.05;98851.44;4812655;29;102021;-88
2021/11/29 08:21:50;;;;;;;9.43;5.30;;;;;;;13.74;74.01;98845.97;4827716;29;102407;-87
2021/11/29 08:24:17;;;;;;;10.55;4.93;;;;;;;13.76;74.17;98834.69;4828341;29;101972;-87
2021/11/29 08:26:44;;;;;;;13.18;5.30;;;;;;;13.75;74.14;98828.41;4828202;29;102002;-88
2021/11/29 08:29:10;;;;;;;13.65;5.65;;;;;;;13.75;73.99;98817.47;4812368;29;102253;-87
2021/11/29 08:31:37;;;;;;;10.65;4.88;;;;;;;13.75;73.99;98817.47;4830698;29;106691;-88
2021/11/29 08:34:03;;;;;;;11.00;5.15;;;;;;;13.76;73.87;98819.06;4831960;29;101644;-88
2021/11/29 08:36:30;;;;;;;14.38;5.35;;;;;;;13.76;73.97;98810.06;4814837;29;101635;-87
2021/11/29 08:38:57;;;;;;;13.23;5.90;;;;;;;13.75;73.91;98801.09;4832490;29;102065;-88
2021/11/29 08:41:27;;;;;;;14.00;5.78;;;;;;;13.76;74.03;98802.66;4836429;29;102052;-88
2021/11/29 08:43:53;;;;;;;13.05;5.45;;;;;;;13.76;74.03;98788.22;4833595;29;102011;-87
2021/11/29 08:46:22;;;;;;;13.65;5.20;;;;;;;13.76;74.11;98786.25;4849614;29;101545;-87
2021/11/29 08:48:49;;;;;;;15.73;5.72;;;;;;;13.76;74.08;98771.81;4850990;29;102017;-87
2021/11/29 08:51:17;;;;;;;14.35;5.82;;;;;;;13.76;74.02;98763.59;4849247;29;102437;-88
2021/11/29 08:53:45;;;;;;;13.30;5.07;;;;;;;13.75;73.99;98759.28;4833109;29;101851;-87
2021/11/29 08:56:11;;;;;;;12.50;5.72;;;;;;;13.76;73.99;98741.72;4849781;29;101557;-87
2021/11/29 08:58:39;;;;;;;13.98;5.13;;;;;;;13.76;73.87;98730.78;4850935;29;102060;-87
2021/11/29 09:01:06;;;;;;;14.88;5.40;;;;;;;13.75;74.03;98724.53;4849105;29;102729;-87
2021/11/29 09:03:32;;;;;;;11.35;5.53;;;;;;;13.75;74.01;98712.81;4833485;29;101985;-88
2021/11/29 09:06:00;;;;;;;11.00;5.68;;;;;;;13.76;73.96;98703.47;4849205;29;101690;-88
2021/11/29 09:08:27;;;;;;;13.48;5.60;;;;;;;13.75;74.10;98697.19;4850752;29;102052;-87
2021/11/29 09:10:55;;;;;;;11.57;5.72;;;;;;;13.74;73.91;98684.69;4848883;29;102752;-87
2021/11/29 09:13:22;;;;;;;13.38;6.15;;;;;;;13.74;74.09;98683.84;4849491;29;101760;-88
2021/11/29 09:15:50;;;;;;;13.05;5.15;;;;;;;13.75;74.16;98669.88;4849378;29;102025;-87
2021/11/29 09:18:16;;;;;;;17.25;5.80;;;;;;;13.76;73.88;98662.44;4833154;29;102098;-87
2021/11/29 09:20:44;;;;;;;12.15;5.72;;;;;;;13.75;74.18;98658.13;4848974;29;102699;-87
2021/11/29 09:23:12;;;;;;;13.23;5.72;;;;;;;13.76;73.98;98656.97;4849895;29;101867;-87
2021/11/29 09:25:43;;;;;;;14.15;6.22;;;;;;;13.74;73.93;98645.59;4832030;29;101836;-87
2021/11/29 09:28:11;;;;;;;11.25;5.78;;;;;;;13.76;74.18;98654.25;4848539;29;101883;-87
2021/11/29 09:30:40;;;;;;;11.95;6.18;;;;;;;13.76;74.11;98646.84;4831858;29;105100;-86
2021/11/29 09:33:08;;;;;;;11.15;6.63;;;;;;;13.75;73.98;98608.94;4832964;29;101571;-87
2021/11/29 09:35:36;;;;;;;14.75;5.88;;;;;;;13.76;74.33;98605.03;4831668;29;101594;-87
2021/11/29 09:38:03;;;;;;;12.65;5.88;;;;;;;13.76;73.44;98591.38;4849778;29;102026;-91
2021/11/29 09:40:35;;;;;;;17.17;6.30;;;;;;;13.77;74.08;98606.63;4849026;29;102824;-93
2021/11/29 09:43:03;;;;;;;11.13;5.80;;;;;;;13.76;74.13;98588.63;4841594;29;102151;-93
2021/11/29 09:45:33;;;;;;;13.18;5.68;;;;;;;13.77;74.13;98579.28;4839829;29;101862;-92
2021/11/29 09:48:01;;;;;;;12.25;5.70;;;;;;;13.77;74.33;98574.63;4855400;29;102192;-92
2021/11/29 09:50:29;;;;;;;10.40;4.93;;;;;;;13.78;74.13;98559.03;4817250;29;102791;-93
2021/11/29 09:52:56;;;;;;;11.83;5.97;;;;;;;13.78;74.00;98548.09;4856407;29;102155;-93
2021/11/29 09:55:25;;;;;;;10.55;6.20;;;;;;;13.77;74.17;98533.59;4846765;29;102070;-93
2021/11/29 09:57:52;;;;;;;;;;;;;;;13.79;74.38;98527.81;4856111;29;102211;-93
2021/11/29 10:00:26;;;;;;;12.88;5.57;;;;;;;13.79;74.21;98522.34;4857414;29;102716;-92
2021/11/29 10:02:52;;;;;;;11.45;5.55;;;;;;;13.79;74.17;98517.66;4847940;29;102084;-93
2021/11/29 10:05:21;;;;;;;13.65;6.10;;;;;;;13.78;74.03;98510.63;4847551;29;102281;-93
2021/11/29 10:07:51;;;;;;;14.60;5.80;;;;;;;13.80;74.00;98513.00;4848620;29;102040;-93
2021/11/29 10:10:23;;;;;;;12.15;6.13;;;;;;;13.79;74.11;98505.94;4819958;29;102723;-93
2021/11/29 10:12:53;;;;;;;9.65;5.18;;;;;;;13.81;74.25;98503.66;4842711;29;101907;-93
2021/11/29 10:15:24;;;;;;;14.00;5.97;;;;;;;13.80;74.33;98497.38;4843626;29;102083;-93
2021/11/29 10:17:58;;;;;;;9.55;5.43;;;;;;;13.80;74.28;98474.72;4840560;29;102122;-93
2021/11/29 10:20:28;;;;;;;10.80;5.72;;;;;;;13.81;74.31;98465.38;4842845;29;106622;-92
2021/11/29 10:22:59;;;;;;;8.88;5.70;;;;;;;13.81;74.13;98466.19;4835200;29;102122;-93
2021/11/29 10:25:25;;;;;;;10.82;5.47;;;;;;;13.80;74.13;98470.03;4839380;29;102414;-92
2021/11/29 10:27:52;;;;;;;10.38;5.43;;;;;;;13.80;74.17;98453.66;4822193;29;102160;-92
2021/11/29 10:30:20;;;;;;;11.52;5.95;;;;;;;13.82;74.25;98439.63;4829523;29;102876;-92
2021/11/29 10:32:48;;;;;;;11.25;5.68;;;;;;;13.81;74.13;98459.91;4841395;29;102046;-93
2021/11/29 10:35:23;;;;;;;12.25;5.75;;;;;;;13.81;74.24;98481.78;4844542;29;101897;-93
2021/11/29 10:37:52;;;;;;;12.18;6.00;;;;;;;13.81;74.12;98507.19;4840222;29;102128;-92
2021/11/29 10:40:20;;;;;;;11.48;5.57;;;;;;;13.82;73.86;98499.78;4839774;29;102312;-92
2021/11/29 10:42:48;;;;;;;12.63;6.20;;;;;;;13.82;74.24;98516.19;4845106;29;102212;-93
2021/11/29 10:45:21;;;;;;;9.70;5.70;;;;;;;13.82;74.12;98527.91;4831758;29;102153;-93
2021/11/29 10:47:49;;;;;;;9.52;5.53;;;;;;;13.83;73.98;98476.75;4839566;29;102072;-92
2021/11/29 10:50:16;;;;;;;9.90;5.60;;;;;;;13.83;74.16;98460.34;4850827;29;102970;-92
2021/11/29 10:52:46;;;;;;;13.13;6.38;;;;;;;13.82;73.99;98434.19;4855505;29;102012;-92
2021/11/29 10:55:13;;;;;;;12.63;6.03;;;;;;;13.83;74.10;98476.75;4852124;29;102067;-93
2021/11/29 10:57:47;;;;;;;15.00;6.63;;;;;;;13.83;74.35;98463.09;4837271;29;102118;-93
2021/11/29 11:00:17;;;;;;;10.32;5.82;;;;;;;13.82;74.27;98456.03;4824339;29;102724;-93
2021/11/29 11:03:00;;;;;;;11.20;5.88;;;;;;;13.82;74.23;98451.38;4852758;29;102012;-93
2021/11/29 11:05:27;;;;;;;11.55;5.93;;;;;;;13.82;74.15;98453.31;4838269;29;104036;-93
2021/11/29 11:08:07;;;;;;;13.23;6.45;;;;;;;13.83;74.32;98419.34;4847730;29;102248;-92
2021/11/29 11:10:34;;;;;;;11.68;5.07;;;;;;;13.83;74.17;98430.28;4832357;29;102097;-93
2021/11/29 11:13:04;;;;;;;10.40;5.40;;;;;;;13.83;74.12;98403.75;4858339;29;102196;-93
2021/11/29 11:15:42;;;;;;;15.20;6.10;;;;;;;13.83;74.14;98401.00;4835419;29;102216;-92
2021/11/29 11:18:09;;;;;;;12.93;6.60;;;;;;;13.82;74.26;98410.34;4840564;29;101963;-93
2021/11/29 11:20:37;;;;;;;8.65;4.55;;;;;;;13.83;74.45;98392.81;4821009;29;102746;-93
2021/11/29 11:23:04;;;;;;;14.65;6.40;;;;;;;13.83;74.24;98381.06;4847664;29;102065;-93
2021/11/29 11:25:33;;;;;;;13.13;5.93;;;;;;;13.84;74.37;98385.38;4831093;29;102458;-93